sensor_id;sensor_type;location;lat;lon;timestamp;P1;durP1;ratioP1;P2;durP2;ratioP2
26223;SDS011;14820;48.682;8.890;2022-08-01T00:02:12;2.58;;;1.85;;
26223;SDS011;14820;48.682;8.890;2022-08-01T00:04:38;4.18;;;2.08;;
26223;SDS011;14820;48.682;8.890;2022-08-01T00:07:03;2.50;;;1.85;;
26223;SDS011;14820;48.682;8.890;2022-08-01T00:09:29;2.63;;;1.95;;
26223;SDS011;14820;48.682;8.890;2022-08-01T00:11:55;2.00;;;1.80;;
26223;SDS011;14820;48.682;8.890;2022-08-01T00:14:21;2.30;;;1.92;;
26223;SDS011;14820;48.682;8.890;2022-08-01T00:16:46;2.58;;;2.15;;
26223;SDS011;14820;48.682;8.890;2022-08-01T00:19:12;2.88;;;2.20;;
26223;SDS011;14820;48.682;8.890;2022-08-01T00:21:38;2.42;;;2.00;;
26223;SDS011;14820;48.682;8.890;2022-08-01T00:24:03;2.80;;;2.00;;
26223;SDS011;14820;48.682;8.890;2022-08-01T00:26:29;2.38;;;2.00;;
26223;SDS011;14820;48.682;8.890;2022-08-01T00:28:55;2.58;;;1.98;;
26223;SDS011;14820;48.682;8.890;2022-08-01T00:31:20;2.97;;;2.22;;
26223;SDS011;14820;48.682;8.890;2022-08-01T00:33:46;4.47;;;2.30;;
26223;SDS011;14820;48.682;8.890;2022-08-01T00:36:12;4.30;;;2.35;;
26223;SDS011;14820;48.682;8.890;2022-08-01T00:38:38;3.50;;;1.92;;
26223;SDS011;14820;48.682;8.890;2022-08-01T00:41:03;3.25;;;2.28;;
26223;SDS011;14820;48.682;8.890;2022-08-01T00:43:29;4.63;;;2.10;;
26223;SDS011;14820;48.682;8.890;2022-08-01T00:45:55;2.42;;;2.22;;
26223;SDS011;14820;48.682;8.890;2022-08-01T00:48:21;2.95;;;2.28;;
26223;SDS011;14820;48.682;8.890;2022-08-01T00:50:46;2.72;;;2.17;;
26223;SDS011;14820;48.682;8.890;2022-08-01T00:53:12;6.45;;;2.20;;
26223;SDS011;14820;48.682;8.890;2022-08-01T00:55:38;3.25;;;2.40;;
26223;SDS011;14820;48.682;8.890;2022-08-01T00:58:04;4.82;;;2.17;;
26223;SDS011;14820;48.682;8.890;2022-08-01T01:00:30;3.85;;;2.35;;
26223;SDS011;14820;48.682;8.890;2022-08-01T01:02:57;2.92;;;2.17;;
26223;SDS011;14820;48.682;8.890;2022-08-01T01:05:22;2.90;;;2.30;;
26223;SDS011;14820;48.682;8.890;2022-08-01T01:08:02;2.38;;;2.17;;
26223;SDS011;14820;48.682;8.890;2022-08-01T01:18:47;14.57;;;2.38;;
26223;SDS011;14820;48.682;8.890;2022-08-01T01:31:16;3.67;;;2.50;;
26223;SDS011;14820;48.682;8.890;2022-08-01T01:33:46;5.68;;;2.80;;
26223;SDS011;14820;48.682;8.890;2022-08-01T01:36:14;3.63;;;2.50;;
26223;SDS011;14820;48.682;8.890;2022-08-01T01:38:42;4.10;;;2.40;;
26223;SDS011;14820;48.682;8.890;2022-08-01T01:41:11;3.20;;;2.67;;
26223;SDS011;14820;48.682;8.890;2022-08-01T01:43:39;5.75;;;2.72;;
26223;SDS011;14820;48.682;8.890;2022-08-01T01:46:05;3.40;;;2.45;;
26223;SDS011;14820;48.682;8.890;2022-08-01T01:48:34;3.20;;;2.75;;
26223;SDS011;14820;48.682;8.890;2022-08-01T01:51:01;3.20;;;2.58;;
26223;SDS011;14820;48.682;8.890;2022-08-01T01:53:28;3.22;;;2.28;;
26223;SDS011;14820;48.682;8.890;2022-08-01T01:55:57;5.22;;;2.28;;
26223;SDS011;14820;48.682;8.890;2022-08-01T01:58:25;2.80;;;2.50;;
26223;SDS011;14820;48.682;8.890;2022-08-01T02:00:54;2.60;;;2.40;;
26223;SDS011;14820;48.682;8.890;2022-08-01T02:03:21;4.32;;;2.53;;
26223;SDS011;14820;48.682;8.890;2022-08-01T02:05:49;3.10;;;2.67;;
26223;SDS011;14820;48.682;8.890;2022-08-01T02:08:18;3.28;;;2.13;;
26223;SDS011;14820;48.682;8.890;2022-08-01T02:10:45;5.72;;;2.50;;
26223;SDS011;14820;48.682;8.890;2022-08-01T02:13:34;4.57;;;2.22;;
26223;SDS011;14820;48.682;8.890;2022-08-01T02:16:02;4.53;;;2.50;;
26223;SDS011;14820;48.682;8.890;2022-08-01T02:18:28;3.97;;;2.50;;
26223;SDS011;14820;48.682;8.890;2022-08-01T02:20:55;5.72;;;2.58;;
26223;SDS011;14820;48.682;8.890;2022-08-01T02:23:23;4.85;;;2.67;;
26223;SDS011;14820;48.682;8.890;2022-08-01T02:25:52;3.78;;;2.97;;
26223;SDS011;14820;48.682;8.890;2022-08-01T02:28:22;2.88;;;2.58;;
26223;SDS011;14820;48.682;8.890;2022-08-01T02:30:54;3.67;;;2.40;;
26223;SDS011;14820;48.682;8.890;2022-08-01T02:33:39;5.53;;;2.65;;
26223;SDS011;14820;48.682;8.890;2022-08-01T02:36:08;3.85;;;2.85;;
26223;SDS011;14820;48.682;8.890;2022-08-01T02:38:36;3.10;;;2.80;;
26223;SDS011;14820;48.682;8.890;2022-08-01T02:41:19;3.35;;;2.50;;
26223;SDS011;14820;48.682;8.890;2022-08-01T02:43:47;4.85;;;2.88;;
26223;SDS011;14820;48.682;8.890;2022-08-01T02:46:59;3.08;;;2.53;;
26223;SDS011;14820;48.682;8.890;2022-08-01T02:49:09;5.63;;;2.80;;
26223;SDS011;14820;48.682;8.890;2022-08-01T02:51:36;6.32;;;2.50;;
26223;SDS011;14820;48.682;8.890;2022-08-01T02:54:05;3.30;;;2.70;;
26223;SDS011;14820;48.682;8.890;2022-08-01T02:56:33;3.38;;;2.70;;
26223;SDS011;14820;48.682;8.890;2022-08-01T02:59:01;3.00;;;2.58;;
26223;SDS011;14820;48.682;8.890;2022-08-01T03:01:37;4.15;;;2.80;;
26223;SDS011;14820;48.682;8.890;2022-08-01T03:04:04;3.80;;;3.00;;
26223;SDS011;14820;48.682;8.890;2022-08-01T03:06:32;3.25;;;2.75;;
26223;SDS011;14820;48.682;8.890;2022-08-01T03:09:00;5.78;;;2.92;;
26223;SDS011;14820;48.682;8.890;2022-08-01T03:11:27;4.30;;;2.50;;
26223;SDS011;14820;48.682;8.890;2022-08-01T03:13:56;3.20;;;2.70;;
26223;SDS011;14820;48.682;8.890;2022-08-01T03:16:24;3.58;;;2.67;;
26223;SDS011;14820;48.682;8.890;2022-08-01T03:18:52;4.00;;;3.05;;
26223;SDS011;14820;48.682;8.890;2022-08-01T03:21:20;3.65;;;2.80;;
26223;SDS011;14820;48.682;8.890;2022-08-01T03:23:48;4.03;;;3.08;;
26223;SDS011;14820;48.682;8.890;2022-08-01T03:26:16;4.47;;;3.08;;
26223;SDS011;14820;48.682;8.890;2022-08-01T03:28:44;3.80;;;2.85;;
26223;SDS011;14820;48.682;8.890;2022-08-01T03:31:12;3.10;;;2.58;;
26223;SDS011;14820;48.682;8.890;2022-08-01T03:33:40;3.58;;;2.75;;
26223;SDS011;14820;48.682;8.890;2022-08-01T03:36:06;7.32;;;3.10;;
26223;SDS011;14820;48.682;8.890;2022-08-01T03:38:37;3.75;;;2.97;;
26223;SDS011;14820;48.682;8.890;2022-08-01T03:41:12;3.03;;;2.67;;
26223;SDS011;14820;48.682;8.890;2022-08-01T03:43:47;3.40;;;2.70;;
26223;SDS011;14820;48.682;8.890;2022-08-01T03:46:20;5.85;;;3.00;;
26223;SDS011;14820;48.682;8.890;2022-08-01T03:48:51;6.43;;;2.90;;
26223;SDS011;14820;48.682;8.890;2022-08-01T03:51:24;4.28;;;2.80;;
26223;SDS011;14820;48.682;8.890;2022-08-01T03:53:50;4.32;;;3.00;;
26223;SDS011;14820;48.682;8.890;2022-08-01T03:56:18;3.50;;;2.88;;
26223;SDS011;14820;48.682;8.890;2022-08-01T03:58:45;3.17;;;2.80;;
26223;SDS011;14820;48.682;8.890;2022-08-01T04:01:11;3.55;;;2.97;;
26223;SDS011;14820;48.682;8.890;2022-08-01T04:03:38;3.38;;;2.78;;
26223;SDS011;14820;48.682;8.890;2022-08-01T04:06:05;3.20;;;2.50;;
26223;SDS011;14820;48.682;8.890;2022-08-01T04:08:34;4.25;;;2.80;;
26223;SDS011;14820;48.682;8.890;2022-08-01T04:11:00;5.20;;;3.28;;
26223;SDS011;14820;48.682;8.890;2022-08-01T04:13:26;4.90;;;2.95;;
26223;SDS011;14820;48.682;8.890;2022-08-01T04:15:52;3.85;;;3.28;;
26223;SDS011;14820;48.682;8.890;2022-08-01T04:18:18;4.63;;;2.83;;
26223;SDS011;14820;48.682;8.890;2022-08-01T04:20:45;7.38;;;3.58;;
26223;SDS011;14820;48.682;8.890;2022-08-01T04:23:11;7.75;;;3.10;;
26223;SDS011;14820;48.682;8.890;2022-08-01T04:25:40;3.25;;;2.95;;
26223;SDS011;14820;48.682;8.890;2022-08-01T04:28:07;6.50;;;3.10;;
26223;SDS011;14820;48.682;8.890;2022-08-01T04:30:41;3.85;;;3.05;;
26223;SDS011;14820;48.682;8.890;2022-08-01T04:33:09;3.70;;;2.90;;
26223;SDS011;14820;48.682;8.890;2022-08-01T04:35:36;3.53;;;3.22;;
26223;SDS011;14820;48.682;8.890;2022-08-01T04:38:06;4.60;;;3.08;;
26223;SDS011;14820;48.682;8.890;2022-08-01T04:40:34;4.88;;;3.17;;
26223;SDS011;14820;48.682;8.890;2022-08-01T04:43:02;3.80;;;3.08;;
26223;SDS011;14820;48.682;8.890;2022-08-01T04:45:28;5.47;;;3.00;;
26223;SDS011;14820;48.682;8.890;2022-08-01T04:47:54;4.97;;;2.90;;
26223;SDS011;14820;48.682;8.890;2022-08-01T04:50:21;4.47;;;3.08;;
26223;SDS011;14820;48.682;8.890;2022-08-01T04:52:47;4.40;;;3.63;;
26223;SDS011;14820;48.682;8.890;2022-08-01T04:55:13;4.25;;;3.10;;
26223;SDS011;14820;48.682;8.890;2022-08-01T04:57:42;5.07;;;3.50;;
26223;SDS011;14820;48.682;8.890;2022-08-01T05:00:10;3.97;;;3.55;;
26223;SDS011;14820;48.682;8.890;2022-08-01T05:02:36;4.07;;;3.20;;
26223;SDS011;14820;48.682;8.890;2022-08-01T05:05:02;4.15;;;3.42;;
26223;SDS011;14820;48.682;8.890;2022-08-01T05:07:30;6.88;;;3.45;;
26223;SDS011;14820;48.682;8.890;2022-08-01T05:09:57;3.88;;;3.28;;
26223;SDS011;14820;48.682;8.890;2022-08-01T05:12:22;5.28;;;3.33;;
26223;SDS011;14820;48.682;8.890;2022-08-01T05:14:48;8.15;;;3.53;;
26223;SDS011;14820;48.682;8.890;2022-08-01T05:17:14;3.78;;;2.90;;
26223;SDS011;14820;48.682;8.890;2022-08-01T05:19:39;6.72;;;3.05;;
26223;SDS011;14820;48.682;8.890;2022-08-01T05:22:06;4.88;;;3.40;;
26223;SDS011;14820;48.682;8.890;2022-08-01T05:24:37;4.50;;;3.15;;
26223;SDS011;14820;48.682;8.890;2022-08-01T05:27:03;6.35;;;3.50;;
26223;SDS011;14820;48.682;8.890;2022-08-01T05:29:31;5.13;;;3.60;;
26223;SDS011;14820;48.682;8.890;2022-08-01T05:31:57;4.65;;;3.60;;
26223;SDS011;14820;48.682;8.890;2022-08-01T05:34:24;5.15;;;3.08;;
26223;SDS011;14820;48.682;8.890;2022-08-01T05:36:50;4.93;;;3.15;;
26223;SDS011;14820;48.682;8.890;2022-08-01T05:39:16;5.57;;;3.45;;
26223;SDS011;14820;48.682;8.890;2022-08-01T05:41:41;4.20;;;3.30;;
26223;SDS011;14820;48.682;8.890;2022-08-01T05:44:07;4.30;;;3.05;;
26223;SDS011;14820;48.682;8.890;2022-08-01T05:46:34;4.63;;;3.10;;
26223;SDS011;14820;48.682;8.890;2022-08-01T05:49:01;4.80;;;3.03;;
26223;SDS011;14820;48.682;8.890;2022-08-01T05:51:28;4.80;;;3.50;;
26223;SDS011;14820;48.682;8.890;2022-08-01T05:53:54;3.28;;;2.70;;
26223;SDS011;14820;48.682;8.890;2022-08-01T05:56:20;4.78;;;3.17;;
26223;SDS011;14820;48.682;8.890;2022-08-01T05:58:46;5.43;;;3.20;;
26223;SDS011;14820;48.682;8.890;2022-08-01T06:01:13;4.32;;;3.10;;
26223;SDS011;14820;48.682;8.890;2022-08-01T06:03:39;3.58;;;2.80;;
26223;SDS011;14820;48.682;8.890;2022-08-01T06:06:04;5.45;;;3.42;;
26223;SDS011;14820;48.682;8.890;2022-08-01T06:08:30;3.20;;;2.90;;
26223;SDS011;14820;48.682;8.890;2022-08-01T06:10:56;4.00;;;2.90;;
26223;SDS011;14820;48.682;8.890;2022-08-01T06:13:22;3.42;;;2.80;;
26223;SDS011;14820;48.682;8.890;2022-08-01T06:15:48;3.72;;;2.80;;
26223;SDS011;14820;48.682;8.890;2022-08-01T06:18:14;3.35;;;3.00;;
26223;SDS011;14820;48.682;8.890;2022-08-01T06:20:41;5.40;;;2.88;;
26223;SDS011;14820;48.682;8.890;2022-08-01T06:23:08;4.68;;;3.33;;
26223;SDS011;14820;48.682;8.890;2022-08-01T06:25:34;3.72;;;3.25;;
26223;SDS011;14820;48.682;8.890;2022-08-01T06:28:00;3.95;;;3.03;;
26223;SDS011;14820;48.682;8.890;2022-08-01T06:30:26;6.93;;;3.00;;
26223;SDS011;14820;48.682;8.890;2022-08-01T06:32:52;3.60;;;2.83;;
26223;SDS011;14820;48.682;8.890;2022-08-01T06:35:20;5.18;;;2.53;;
26223;SDS011;14820;48.682;8.890;2022-08-01T06:37:46;3.45;;;2.92;;
26223;SDS011;14820;48.682;8.890;2022-08-01T06:40:12;3.63;;;2.58;;
26223;SDS011;14820;48.682;8.890;2022-08-01T06:42:38;5.20;;;2.55;;
26223;SDS011;14820;48.682;8.890;2022-08-01T06:45:08;3.53;;;2.30;;
26223;SDS011;14820;48.682;8.890;2022-08-01T06:47:35;2.45;;;2.08;;
26223;SDS011;14820;48.682;8.890;2022-08-01T06:50:01;6.07;;;2.33;;
26223;SDS011;14820;48.682;8.890;2022-08-01T06:52:28;3.15;;;2.22;;
26223;SDS011;14820;48.682;8.890;2022-08-01T06:54:53;3.78;;;1.92;;
26223;SDS011;14820;48.682;8.890;2022-08-01T06:57:19;2.45;;;2.20;;
26223;SDS011;14820;48.682;8.890;2022-08-01T06:59:45;5.43;;;2.22;;
26223;SDS011;14820;48.682;8.890;2022-08-01T07:02:10;2.80;;;2.33;;
26223;SDS011;14820;48.682;8.890;2022-08-01T07:04:36;2.75;;;1.92;;
26223;SDS011;14820;48.682;8.890;2022-08-01T07:07:02;1.60;;;1.40;;
26223;SDS011;14820;48.682;8.890;2022-08-01T07:09:28;2.63;;;1.42;;
26223;SDS011;14820;48.682;8.890;2022-08-01T07:11:53;1.80;;;1.33;;
26223;SDS011;14820;48.682;8.890;2022-08-01T07:14:20;1.98;;;1.45;;
26223;SDS011;14820;48.682;8.890;2022-08-01T07:16:46;1.80;;;1.50;;
26223;SDS011;14820;48.682;8.890;2022-08-01T07:19:12;1.35;;;1.20;;
26223;SDS011;14820;48.682;8.890;2022-08-01T07:21:39;2.55;;;1.70;;
26223;SDS011;14820;48.682;8.890;2022-08-01T07:24:05;1.77;;;1.67;;
26223;SDS011;14820;48.682;8.890;2022-08-01T07:26:31;4.43;;;1.88;;
26223;SDS011;14820;48.682;8.890;2022-08-01T07:28:57;1.92;;;1.70;;
26223;SDS011;14820;48.682;8.890;2022-08-01T07:31:23;2.00;;;1.80;;
26223;SDS011;14820;48.682;8.890;2022-08-01T07:33:49;3.15;;;1.73;;
26223;SDS011;14820;48.682;8.890;2022-08-01T07:36:18;1.90;;;1.45;;
26223;SDS011;14820;48.682;8.890;2022-08-01T07:38:44;2.35;;;1.60;;
26223;SDS011;14820;48.682;8.890;2022-08-01T07:41:10;2.80;;;1.83;;
26223;SDS011;14820;48.682;8.890;2022-08-01T07:43:36;2.88;;;2.00;;
26223;SDS011;14820;48.682;8.890;2022-08-01T07:46:05;1.90;;;1.70;;
26223;SDS011;14820;48.682;8.890;2022-08-01T07:48:31;1.83;;;1.70;;
26223;SDS011;14820;48.682;8.890;2022-08-01T07:50:57;2.05;;;1.58;;
26223;SDS011;14820;48.682;8.890;2022-08-01T07:53:22;3.90;;;2.05;;
26223;SDS011;14820;48.682;8.890;2022-08-01T07:55:48;2.28;;;1.85;;
26223;SDS011;14820;48.682;8.890;2022-08-01T07:58:15;2.15;;;1.92;;
26223;SDS011;14820;48.682;8.890;2022-08-01T08:00:41;3.35;;;2.13;;
26223;SDS011;14820;48.682;8.890;2022-08-01T08:03:07;1.95;;;1.70;;
26223;SDS011;14820;48.682;8.890;2022-08-01T08:05:32;2.03;;;1.83;;
26223;SDS011;14820;48.682;8.890;2022-08-01T08:08:00;2.30;;;2.10;;
26223;SDS011;14820;48.682;8.890;2022-08-01T08:10:27;3.63;;;2.03;;
26223;SDS011;14820;48.682;8.890;2022-08-01T08:12:52;4.32;;;2.50;;
26223;SDS011;14820;48.682;8.890;2022-08-01T08:15:18;3.15;;;2.13;;
26223;SDS011;14820;48.682;8.890;2022-08-01T08:17:44;3.70;;;2.00;;
26223;SDS011;14820;48.682;8.890;2022-08-01T08:20:09;3.28;;;2.25;;
26223;SDS011;14820;48.682;8.890;2022-08-01T08:22:36;2.58;;;2.20;;
26223;SDS011;14820;48.682;8.890;2022-08-01T08:25:02;3.08;;;2.10;;
26223;SDS011;14820;48.682;8.890;2022-08-01T08:27:28;2.15;;;1.95;;
26223;SDS011;14820;48.682;8.890;2022-08-01T08:29:53;2.60;;;2.20;;
26223;SDS011;14820;48.682;8.890;2022-08-01T08:32:19;2.80;;;2.15;;
26223;SDS011;14820;48.682;8.890;2022-08-01T08:34:45;2.35;;;2.15;;
26223;SDS011;14820;48.682;8.890;2022-08-01T08:37:11;3.55;;;2.35;;
26223;SDS011;14820;48.682;8.890;2022-08-01T08:39:37;3.05;;;2.40;;
26223;SDS011;14820;48.682;8.890;2022-08-01T08:42:07;3.70;;;2.20;;
26223;SDS011;14820;48.682;8.890;2022-08-01T08:44:33;4.13;;;2.05;;
26223;SDS011;14820;48.682;8.890;2022-08-01T08:47:00;2.65;;;2.28;;
26223;SDS011;14820;48.682;8.890;2022-08-01T08:49:30;2.67;;;2.38;;
26223;SDS011;14820;48.682;8.890;2022-08-01T08:51:58;2.35;;;2.13;;
26223;SDS011;14820;48.682;8.890;2022-08-01T08:54:24;3.00;;;2.10;;
26223;SDS011;14820;48.682;8.890;2022-08-01T08:56:52;6.57;;;2.22;;
26223;SDS011;14820;48.682;8.890;2022-08-01T08:59:18;2.80;;;2.30;;
26223;SDS011;14820;48.682;8.890;2022-08-01T09:01:45;2.65;;;2.30;;
26223;SDS011;14820;48.682;8.890;2022-08-01T09:04:12;3.22;;;2.15;;
26223;SDS011;14820;48.682;8.890;2022-08-01T09:06:38;2.60;;;2.13;;
26223;SDS011;14820;48.682;8.890;2022-08-01T09:09:04;2.65;;;2.38;;
26223;SDS011;14820;48.682;8.890;2022-08-01T09:11:31;2.90;;;1.90;;
26223;SDS011;14820;48.682;8.890;2022-08-01T09:16:59;3.03;;;2.20;;
26223;SDS011;14820;48.682;8.890;2022-08-01T09:19:26;3.92;;;2.20;;
26223;SDS011;14820;48.682;8.890;2022-08-01T09:22:05;4.80;;;2.30;;
26223;SDS011;14820;48.682;8.890;2022-08-01T09:24:33;2.22;;;2.00;;
26223;SDS011;14820;48.682;8.890;2022-08-01T09:26:59;3.50;;;2.40;;
26223;SDS011;14820;48.682;8.890;2022-08-01T09:29:29;3.03;;;2.20;;
26223;SDS011;14820;48.682;8.890;2022-08-01T09:31:56;2.33;;;2.13;;
26223;SDS011;14820;48.682;8.890;2022-08-01T09:34:25;2.40;;;2.20;;
26223;SDS011;14820;48.682;8.890;2022-08-01T09:36:59;2.75;;;2.03;;
26223;SDS011;14820;48.682;8.890;2022-08-01T09:41:53;2.88;;;2.40;;
26223;SDS011;14820;48.682;8.890;2022-08-01T09:44:36;2.90;;;2.20;;
26223;SDS011;14820;48.682;8.890;2022-08-01T09:47:06;3.80;;;2.10;;
26223;SDS011;14820;48.682;8.890;2022-08-01T09:49:32;2.53;;;2.15;;
26223;SDS011;14820;48.682;8.890;2022-08-01T09:52:14;4.43;;;2.50;;
26223;SDS011;14820;48.682;8.890;2022-08-01T09:55:01;3.80;;;2.23;;
26223;SDS011;14820;48.682;8.890;2022-08-01T09:57:28;2.60;;;2.15;;
26223;SDS011;14820;48.682;8.890;2022-08-01T09:59:56;3.80;;;2.20;;
26223;SDS011;14820;48.682;8.890;2022-08-01T10:02:33;3.10;;;1.83;;
26223;SDS011;14820;48.682;8.890;2022-08-01T10:05:00;3.30;;;1.90;;
26223;SDS011;14820;48.682;8.890;2022-08-01T10:07:28;4.43;;;2.13;;
26223;SDS011;14820;48.682;8.890;2022-08-01T10:09:54;2.80;;;2.00;;
26223;SDS011;14820;48.682;8.890;2022-08-01T10:12:20;2.47;;;2.00;;
26223;SDS011;14820;48.682;8.890;2022-08-01T10:14:49;2.78;;;1.90;;
26223;SDS011;14820;48.682;8.890;2022-08-01T10:17:17;2.42;;;2.08;;
26223;SDS011;14820;48.682;8.890;2022-08-01T10:19:44;2.72;;;2.15;;
26223;SDS011;14820;48.682;8.890;2022-08-01T10:22:11;3.30;;;2.20;;
26223;SDS011;14820;48.682;8.890;2022-08-01T10:24:42;2.75;;;2.17;;
26223;SDS011;14820;48.682;8.890;2022-08-01T10:27:11;2.35;;;2.08;;
26223;SDS011;14820;48.682;8.890;2022-08-01T10:30:01;2.92;;;2.20;;
26223;SDS011;14820;48.682;8.890;2022-08-01T10:32:30;2.47;;;2.10;;
26223;SDS011;14820;48.682;8.890;2022-08-01T10:34:56;2.42;;;2.03;;
26223;SDS011;14820;48.682;8.890;2022-08-01T10:37:24;2.25;;;1.77;;
26223;SDS011;14820;48.682;8.890;2022-08-01T10:39:50;2.50;;;2.30;;
26223;SDS011;14820;48.682;8.890;2022-08-01T10:42:17;4.47;;;2.20;;
26223;SDS011;14820;48.682;8.890;2022-08-01T10:44:43;3.00;;;1.85;;
26223;SDS011;14820;48.682;8.890;2022-08-01T10:47:13;2.78;;;2.15;;
26223;SDS011;14820;48.682;8.890;2022-08-01T10:49:47;2.50;;;1.95;;
26223;SDS011;14820;48.682;8.890;2022-08-01T10:52:34;3.30;;;2.13;;
26223;SDS011;14820;48.682;8.890;2022-08-01T10:55:04;3.83;;;2.10;;
26223;SDS011;14820;48.682;8.890;2022-08-01T10:57:46;2.85;;;2.15;;
26223;SDS011;14820;48.682;8.890;2022-08-01T11:00:17;2.75;;;1.83;;
26223;SDS011;14820;48.682;8.890;2022-08-01T11:02:56;3.30;;;2.30;;
26223;SDS011;14820;48.682;8.890;2022-08-01T11:05:23;2.33;;;2.00;;
26223;SDS011;14820;48.682;8.890;2022-08-01T11:07:53;3.17;;;2.08;;
26223;SDS011;14820;48.682;8.890;2022-08-01T11:12:51;2.90;;;2.13;;
26223;SDS011;14820;48.682;8.890;2022-08-01T11:15:18;5.15;;;2.10;;
26223;SDS011;14820;48.682;8.890;2022-08-01T11:17:52;2.42;;;1.92;;
26223;SDS011;14820;48.682;8.890;2022-08-01T11:25:28;2.22;;;2.03;;
26223;SDS011;14820;48.682;8.890;2022-08-01T11:30:41;3.30;;;1.90;;
26223;SDS011;14820;48.682;8.890;2022-08-01T11:33:12;3.55;;;2.00;;
26223;SDS011;14820;48.682;8.890;2022-08-01T11:36:16;2.67;;;2.15;;
26223;SDS011;14820;48.682;8.890;2022-08-01T11:38:40;2.75;;;2.00;;
26223;SDS011;14820;48.682;8.890;2022-08-01T11:41:15;9.00;;;2.20;;
26223;SDS011;14820;48.682;8.890;2022-08-01T11:44:06;2.50;;;1.92;;
26223;SDS011;14820;48.682;8.890;2022-08-01T11:52:13;2.85;;;2.05;;
26223;SDS011;14820;48.682;8.890;2022-08-01T11:57:32;1.70;;;1.60;;
26223;SDS011;14820;48.682;8.890;2022-08-01T12:02:41;3.70;;;1.85;;
26223;SDS011;14820;48.682;8.890;2022-08-01T12:05:12;3.92;;;2.03;;
26223;SDS011;14820;48.682;8.890;2022-08-01T12:07:39;2.70;;;1.70;;
26223;SDS011;14820;48.682;8.890;2022-08-01T12:12:33;2.03;;;1.63;;
26223;SDS011;14820;48.682;8.890;2022-08-01T12:15:02;2.50;;;1.70;;
26223;SDS011;14820;48.682;8.890;2022-08-01T12:17:39;2.03;;;1.83;;
26223;SDS011;14820;48.682;8.890;2022-08-01T12:20:07;3.45;;;1.50;;
26223;SDS011;14820;48.682;8.890;2022-08-01T12:22:35;1.80;;;1.60;;
26223;SDS011;14820;48.682;8.890;2022-08-01T12:25:11;1.63;;;1.50;;
26223;SDS011;14820;48.682;8.890;2022-08-01T12:27:41;2.03;;;1.80;;
26223;SDS011;14820;48.682;8.890;2022-08-01T12:30:12;2.60;;;1.80;;
26223;SDS011;14820;48.682;8.890;2022-08-01T12:32:44;2.63;;;2.00;;
26223;SDS011;14820;48.682;8.890;2022-08-01T12:35:12;2.30;;;1.60;;
26223;SDS011;14820;48.682;8.890;2022-08-01T12:37:46;1.92;;;1.80;;
26223;SDS011;14820;48.682;8.890;2022-08-01T12:40:15;2.83;;;1.73;;
26223;SDS011;14820;48.682;8.890;2022-08-01T12:42:43;1.83;;;1.65;;
26223;SDS011;14820;48.682;8.890;2022-08-01T12:45:11;2.15;;;1.92;;
26223;SDS011;14820;48.682;8.890;2022-08-01T12:47:40;2.33;;;1.58;;
26223;SDS011;14820;48.682;8.890;2022-08-01T12:50:08;1.60;;;1.50;;
26223;SDS011;14820;48.682;8.890;2022-08-01T12:52:40;3.20;;;1.92;;
26223;SDS011;14820;48.682;8.890;2022-08-01T12:55:13;2.88;;;1.42;;
26223;SDS011;14820;48.682;8.890;2022-08-01T12:57:42;2.22;;;2.00;;
26223;SDS011;14820;48.682;8.890;2022-08-01T13:00:14;2.10;;;1.88;;
26223;SDS011;14820;48.682;8.890;2022-08-01T13:02:42;2.25;;;1.67;;
26223;SDS011;14820;48.682;8.890;2022-08-01T13:05:09;5.60;;;2.05;;
26223;SDS011;14820;48.682;8.890;2022-08-01T13:10:15;5.10;;;2.05;;
26223;SDS011;14820;48.682;8.890;2022-08-01T13:12:51;3.35;;;2.22;;
26223;SDS011;14820;48.682;8.890;2022-08-01T13:15:19;2.65;;;1.92;;
26223;SDS011;14820;48.682;8.890;2022-08-01T13:17:49;5.40;;;2.00;;
26223;SDS011;14820;48.682;8.890;2022-08-01T13:23:15;2.75;;;1.77;;
26223;SDS011;14820;48.682;8.890;2022-08-01T13:25:49;2.45;;;1.95;;
26223;SDS011;14820;48.682;8.890;2022-08-01T13:28:18;2.53;;;1.60;;
26223;SDS011;14820;48.682;8.890;2022-08-01T13:30:58;3.33;;;1.95;;
26223;SDS011;14820;48.682;8.890;2022-08-01T13:36:11;2.50;;;2.20;;
26223;SDS011;14820;48.682;8.890;2022-08-01T13:38:37;2.78;;;2.10;;
26223;SDS011;14820;48.682;8.890;2022-08-01T13:41:22;3.17;;;2.28;;
26223;SDS011;14820;48.682;8.890;2022-08-01T13:43:48;3.30;;;2.00;;
26223;SDS011;14820;48.682;8.890;2022-08-01T13:46:14;4.78;;;2.30;;
26223;SDS011;14820;48.682;8.890;2022-08-01T13:48:40;3.30;;;2.20;;
26223;SDS011;14820;48.682;8.890;2022-08-01T13:51:05;2.33;;;2.13;;
26223;SDS011;14820;48.682;8.890;2022-08-01T13:53:31;3.55;;;1.95;;
26223;SDS011;14820;48.682;8.890;2022-08-01T13:55:57;3.40;;;2.15;;
26223;SDS011;14820;48.682;8.890;2022-08-01T13:58:23;2.72;;;2.05;;
26223;SDS011;14820;48.682;8.890;2022-08-01T14:00:48;2.70;;;2.20;;
26223;SDS011;14820;48.682;8.890;2022-08-01T14:03:14;3.45;;;2.40;;
26223;SDS011;14820;48.682;8.890;2022-08-01T14:05:41;3.17;;;2.00;;
26223;SDS011;14820;48.682;8.890;2022-08-01T14:08:08;2.65;;;2.03;;
26223;SDS011;14820;48.682;8.890;2022-08-01T14:10:34;3.00;;;2.30;;
26223;SDS011;14820;48.682;8.890;2022-08-01T14:13:00;3.03;;;2.05;;
26223;SDS011;14820;48.682;8.890;2022-08-01T14:15:26;2.15;;;1.90;;
26223;SDS011;14820;48.682;8.890;2022-08-01T14:17:51;3.03;;;1.70;;
26223;SDS011;14820;48.682;8.890;2022-08-01T14:20:17;3.60;;;2.15;;
26223;SDS011;14820;48.682;8.890;2022-08-01T14:22:47;2.92;;;2.10;;
26223;SDS011;14820;48.682;8.890;2022-08-01T14:25:13;2.38;;;1.90;;
26223;SDS011;14820;48.682;8.890;2022-08-01T14:27:39;2.55;;;2.00;;
26223;SDS011;14820;48.682;8.890;2022-08-01T14:30:06;4.28;;;1.80;;
26223;SDS011;14820;48.682;8.890;2022-08-01T14:32:33;2.58;;;1.65;;
26223;SDS011;14820;48.682;8.890;2022-08-01T14:35:02;2.78;;;1.90;;
26223;SDS011;14820;48.682;8.890;2022-08-01T14:37:30;2.80;;;2.00;;
26223;SDS011;14820;48.682;8.890;2022-08-01T14:39:56;2.00;;;1.83;;
26223;SDS011;14820;48.682;8.890;2022-08-01T14:42:23;5.20;;;1.90;;
26223;SDS011;14820;48.682;8.890;2022-08-01T14:44:48;2.65;;;1.75;;
26223;SDS011;14820;48.682;8.890;2022-08-01T14:47:14;4.05;;;2.00;;
26223;SDS011;14820;48.682;8.890;2022-08-01T14:49:40;2.70;;;2.00;;
26223;SDS011;14820;48.682;8.890;2022-08-01T14:52:05;3.35;;;2.17;;
26223;SDS011;14820;48.682;8.890;2022-08-01T14:54:31;4.18;;;2.30;;
26223;SDS011;14820;48.682;8.890;2022-08-01T14:56:57;2.13;;;1.88;;
26223;SDS011;14820;48.682;8.890;2022-08-01T14:59:22;6.07;;;1.90;;
26223;SDS011;14820;48.682;8.890;2022-08-01T15:01:48;2.20;;;2.00;;
26223;SDS011;14820;48.682;8.890;2022-08-01T15:04:13;2.67;;;2.05;;
26223;SDS011;14820;48.682;8.890;2022-08-01T15:06:39;2.38;;;1.90;;
26223;SDS011;14820;48.682;8.890;2022-08-01T15:09:05;2.53;;;2.13;;
26223;SDS011;14820;48.682;8.890;2022-08-01T15:11:30;4.20;;;1.80;;
26223;SDS011;14820;48.682;8.890;2022-08-01T15:13:56;4.53;;;3.15;;
26223;SDS011;14820;48.682;8.890;2022-08-01T15:16:40;2.80;;;2.30;;
26223;SDS011;14820;48.682;8.890;2022-08-01T15:19:06;2.17;;;1.98;;
26223;SDS011;14820;48.682;8.890;2022-08-01T15:21:32;2.80;;;1.90;;
26223;SDS011;14820;48.682;8.890;2022-08-01T15:23:58;2.05;;;1.83;;
26223;SDS011;14820;48.682;8.890;2022-08-01T15:26:24;3.67;;;2.20;;
26223;SDS011;14820;48.682;8.890;2022-08-01T15:28:50;4.93;;;3.35;;
26223;SDS011;14820;48.682;8.890;2022-08-01T15:31:15;5.38;;;2.47;;
26223;SDS011;14820;48.682;8.890;2022-08-01T15:33:41;3.50;;;2.00;;
26223;SDS011;14820;48.682;8.890;2022-08-01T15:36:07;2.13;;;1.92;;
26223;SDS011;14820;48.682;8.890;2022-08-01T15:38:32;2.28;;;1.92;;
26223;SDS011;14820;48.682;8.890;2022-08-01T15:40:58;5.05;;;1.75;;
26223;SDS011;14820;48.682;8.890;2022-08-01T15:43:24;3.17;;;1.90;;
26223;SDS011;14820;48.682;8.890;2022-08-01T15:45:50;2.42;;;1.70;;
26223;SDS011;14820;48.682;8.890;2022-08-01T15:48:16;3.90;;;1.73;;
26223;SDS011;14820;48.682;8.890;2022-08-01T15:50:42;5.40;;;1.80;;